sensor_id;sensor_type;location;lat;lon;timestamp;pressure;altitude;pressure_sealevel;temperature;humidity
71643;BME280;59438;45.014;39.006;2023-05-09T00:01:42;101466.91;;;9.03;86.74
71643;BME280;59438;45.014;39.006;2023-05-09T00:04:09;101465.22;;;9.00;86.88
71643;BME280;59438;45.014;39.006;2023-05-09T00:06:35;101458.25;;;8.99;86.59
71643;BME280;59438;45.014;39.006;2023-05-09T00:09:02;101471.31;;;9.02;86.32
71643;BME280;59438;45.014;39.006;2023-05-09T00:11:28;101455.72;;;8.95;86.60
71643;BME280;59438;45.014;39.006;2023-05-09T00:13:55;101463.47;;;8.99;86.58
71643;BME280;59438;45.014;39.006;2023-05-09T00:16:21;101462.63;;;8.99;86.33
71643;BME280;59438;45.014;39.006;2023-05-09T00:18:49;101473.09;;;8.99;86.83
71643;BME280;59438;45.014;39.006;2023-05-09T00:21:15;101471.41;;;8.96;86.68
71643;BME280;59438;45.014;39.006;2023-05-09T00:23:42;101465.34;;;8.94;87.06
71643;BME280;59438;45.014;39.006;2023-05-09T00:26:08;101463.66;;;8.92;86.30
71643;BME280;59438;45.014;39.006;2023-05-09T00:28:35;101474.97;;;8.94;86.99
71643;BME280;59438;45.014;39.006;2023-05-09T00:31:02;101475.81;;;8.94;86.70
71643;BME280;59438;45.014;39.006;2023-05-09T00:33:28;101468.81;;;8.95;86.78
71643;BME280;59438;45.014;39.006;2023-05-09T00:35:56;101472.28;;;8.95;87.30
71643;BME280;59438;45.014;39.006;2023-05-09T00:38:23;101472.34;;;8.94;86.81
71643;BME280;59438;45.014;39.006;2023-05-09T00:40:49;101469.72;;;8.94;87.04
71643;BME280;59438;45.014;39.006;2023-05-09T00:43:15;101487.19;;;8.93;87.02
71643;BME280;59438;45.014;39.006;2023-05-09T00:45:42;101471.53;;;8.88;86.81
71643;BME280;59438;45.014;39.006;2023-05-09T00:48:08;101475.91;;;8.90;87.67
71643;BME280;59438;45.014;39.006;2023-05-09T00:50:35;101478.47;;;8.93;87.31
71643;BME280;59438;45.014;39.006;2023-05-09T00:53:03;101482.78;;;8.95;87.04
71643;BME280;59438;45.014;39.006;2023-05-09T00:55:29;101481.06;;;8.94;86.78
71643;BME280;59438;45.014;39.006;2023-05-09T00:57:56;101484.53;;;8.95;87.44
71643;BME280;59438;45.014;39.006;2023-05-09T01:00:23;101487.16;;;8.95;86.70
71643;BME280;59438;45.014;39.006;2023-05-09T01:02:52;101482.00;;;8.90;86.76
71643;BME280;59438;45.014;39.006;2023-05-09T01:05:19;101476.75;;;8.90;86.49
71643;BME280;59438;45.014;39.006;2023-05-09T01:07:51;101479.38;;;8.90;86.88
71643;BME280;59438;45.014;39.006;2023-05-09T01:10:24;101456.97;;;8.74;87.17
71643;BME280;59438;45.014;39.006;2023-05-09T01:13:12;101485.47;;;8.91;87.24
71643;BME280;59438;45.014;39.006;2023-05-09T01:15:45;101484.66;;;8.87;86.74
71643;BME280;59438;45.014;39.006;2023-05-09T01:18:20;101485.59;;;8.84;87.14
71643;BME280;59438;45.014;39.006;2023-05-09T01:20:58;101489.97;;;8.84;86.61
71643;BME280;59438;45.014;39.006;2023-05-09T01:24:06;101489.13;;;8.82;87.09
71643;BME280;59438;45.014;39.006;2023-05-09T01:26:45;101489.25;;;8.76;86.43
71643;BME280;59438;45.014;39.006;2023-05-09T01:29:33;101494.47;;;8.76;86.67
71643;BME280;59438;45.014;39.006;2023-05-09T01:32:03;101490.19;;;8.72;86.42
71643;BME280;59438;45.014;39.006;2023-05-09T01:34:32;101491.06;;;8.71;86.07
71643;BME280;59438;45.014;39.006;2023-05-09T01:36:59;101499.00;;;8.64;85.84
71643;BME280;59438;45.014;39.006;2023-05-09T01:39:26;101499.09;;;8.60;85.81
71643;BME280;59438;45.014;39.006;2023-05-09T01:41:54;101486.94;;;8.57;86.19
71643;BME280;59438;45.014;39.006;2023-05-09T01:44:22;101483.44;;;8.57;86.33
71643;BME280;59438;45.014;39.006;2023-05-09T01:46:52;101452.25;;;8.43;86.50
71643;BME280;59438;45.014;39.006;2023-05-09T01:49:19;101473.88;;;8.54;86.31
71643;BME280;59438;45.014;39.006;2023-05-09T01:51:47;101479.16;;;8.53;85.74
71643;BME280;59438;45.014;39.006;2023-05-09T01:54:15;101472.22;;;8.49;85.96
71643;BME280;59438;45.014;39.006;2023-05-09T01:56:43;101469.72;;;8.38;85.94
71643;BME280;59438;45.014;39.006;2023-05-09T01:59:10;101480.19;;;8.42;86.54
71643;BME280;59438;45.014;39.006;2023-05-09T02:01:37;101478.41;;;8.40;86.78
71643;BME280;59438;45.014;39.006;2023-05-09T02:04:05;101480.19;;;8.41;86.47
71643;BME280;59438;45.014;39.006;2023-05-09T02:06:32;101474.09;;;8.37;86.50
71643;BME280;59438;45.014;39.006;2023-05-09T02:09:00;101459.31;;;8.35;86.79
71643;BME280;59438;45.014;39.006;2023-05-09T02:11:27;101454.91;;;8.38;86.80
71643;BME280;59438;45.014;39.006;2023-05-09T02:13:54;101456.69;;;8.36;86.80
71643;BME280;59438;45.014;39.006;2023-05-09T02:16:20;101452.41;;;8.31;86.62
71643;BME280;59438;45.014;39.006;2023-05-09T02:18:46;101473.25;;;8.35;86.30
71643;BME280;59438;45.014;39.006;2023-05-09T02:21:14;101482.91;;;8.32;86.37
71643;BME280;59438;45.014;39.006;2023-05-09T02:23:40;101486.47;;;8.27;86.27
71643;BME280;59438;45.014;39.006;2023-05-09T02:26:07;101497.00;;;8.24;86.06
71643;BME280;59438;45.014;39.006;2023-05-09T02:28:34;101494.41;;;8.21;86.48
71643;BME280;59438;45.014;39.006;2023-05-09T02:31:04;101499.63;;;8.21;86.76
71643;BME280;59438;45.014;39.006;2023-05-09T02:33:32;101478.03;;;8.07;86.55
71643;BME280;59438;45.014;39.006;2023-05-09T02:35:59;101502.31;;;8.18;86.12
71643;BME280;59438;45.014;39.006;2023-05-09T02:38:27;101492.78;;;8.14;86.33
71643;BME280;59438;45.014;39.006;2023-05-09T02:40:54;101504.09;;;8.16;86.76
71643;BME280;59438;45.014;39.006;2023-05-09T02:43:20;101491.91;;;8.14;87.20
71643;BME280;59438;45.014;39.006;2023-05-09T02:45:47;101496.19;;;8.19;86.51
71643;BME280;59438;45.014;39.006;2023-05-09T02:48:13;101503.19;;;8.17;86.09
71643;BME280;59438;45.014;39.006;2023-05-09T02:50:39;101498.03;;;8.11;86.10
71643;BME280;59438;45.014;39.006;2023-05-09T02:53:06;101499.91;;;8.03;86.02
71643;BME280;59438;45.014;39.006;2023-05-09T02:55:33;101499.03;;;8.04;86.53
71643;BME280;59438;45.014;39.006;2023-05-09T02:58:00;101501.66;;;8.04;86.58
71643;BME280;59438;45.014;39.006;2023-05-09T03:00:26;101517.34;;;8.04;86.65
71643;BME280;59438;45.014;39.006;2023-05-09T03:02:52;101497.44;;;7.94;86.45
71643;BME280;59438;45.014;39.006;2023-05-09T03:05:19;101511.25;;;8.02;86.84
71643;BME280;59438;45.014;39.006;2023-05-09T03:07:45;101512.13;;;8.04;86.85
71643;BME280;59438;45.014;39.006;2023-05-09T03:10:12;101507.72;;;8.04;86.66
71643;BME280;59438;45.014;39.006;2023-05-09T03:12:39;101512.22;;;7.96;86.68
71643;BME280;59438;45.014;39.006;2023-05-09T03:15:07;101514.72;;;8.04;86.83
71643;BME280;59438;45.014;39.006;2023-05-09T03:17:33;101520.81;;;8.06;87.32
71643;BME280;59438;45.014;39.006;2023-05-09T03:20:00;101520.78;;;8.07;87.06
71643;BME280;59438;45.014;39.006;2023-05-09T03:22:26;101523.41;;;8.06;87.30
71643;BME280;59438;45.014;39.006;2023-05-09T03:24:53;101529.50;;;8.08;87.07
71643;BME280;59438;45.014;39.006;2023-05-09T03:27:19;101526.03;;;8.06;87.48
71643;BME280;59438;45.014;39.006;2023-05-09T03:29:47;101538.19;;;8.10;87.74
71643;BME280;59438;45.014;39.006;2023-05-09T03:32:13;101530.41;;;8.05;86.76
71643;BME280;59438;45.014;39.006;2023-05-09T03:34:39;101532.13;;;8.05;86.59
71643;BME280;59438;45.014;39.006;2023-05-09T03:37:06;101536.53;;;8.03;87.11
71643;BME280;59438;45.014;39.006;2023-05-09T03:39:32;101528.69;;;8.03;86.93
71643;BME280;59438;45.014;39.006;2023-05-09T03:41:58;101524.34;;;8.03;86.85
71643;BME280;59438;45.014;39.006;2023-05-09T03:44:25;101522.56;;;8.04;87.05
71643;BME280;59438;45.014;39.006;2023-05-09T03:46:53;101517.38;;;8.01;86.62
71643;BME280;59438;45.014;39.006;2023-05-09T03:49:19;101517.41;;;7.99;86.81
71643;BME280;59438;45.014;39.006;2023-05-09T03:51:45;101519.19;;;7.96;86.84
71643;BME280;59438;45.014;39.006;2023-05-09T03:54:12;101515.75;;;7.94;86.75
71643;BME280;59438;45.014;39.006;2023-05-09T03:56:38;101507.06;;;7.88;85.88
71643;BME280;59438;45.014;39.006;2023-05-09T03:59:04;101505.34;;;7.87;86.73
71643;BME280;59438;45.014;39.006;2023-05-09T04:01:31;101518.41;;;7.89;86.20
71643;BME280;59438;45.014;39.006;2023-05-09T04:03:59;101510.66;;;7.81;86.60
71643;BME280;59438;45.014;39.006;2023-05-09T04:06:25;101514.97;;;7.85;86.82
71643;BME280;59438;45.014;39.006;2023-05-09T04:08:52;101523.66;;;7.87;86.61
71643;BME280;59438;45.014;39.006;2023-05-09T04:11:18;101514.97;;;7.87;86.66
71643;BME280;59438;45.014;39.006;2023-05-09T04:13:45;101521.91;;;7.88;86.69
71643;BME280;59438;45.014;39.006;2023-05-09T04:16:11;101515.81;;;7.86;86.73
71643;BME280;59438;45.014;39.006;2023-05-09T04:18:37;101515.81;;;7.87;86.46
71643;BME280;59438;45.014;39.006;2023-05-09T04:21:05;101529.75;;;7.88;86.17
71643;BME280;59438;45.014;39.006;2023-05-09T04:23:32;101523.69;;;7.86;86.77
71643;BME280;59438;45.014;39.006;2023-05-09T04:25:58;101521.94;;;7.86;86.70
71643;BME280;59438;45.014;39.006;2023-05-09T04:28:24;101528.88;;;7.89;86.87
71643;BME280;59438;45.014;39.006;2023-05-09T04:30:51;101515.03;;;7.82;86.72
71643;BME280;59438;45.014;39.006;2023-05-09T04:33:17;101528.84;;;7.91;86.93
71643;BME280;59438;45.014;39.006;2023-05-09T04:35:43;101527.06;;;7.93;86.44
71643;BME280;59438;45.014;39.006;2023-05-09T04:38:11;101528.91;;;7.87;86.96
71643;BME280;59438;45.014;39.006;2023-05-09T04:40:38;101529.72;;;7.91;86.53
71643;BME280;59438;45.014;39.006;2023-05-09T04:43:04;101514.91;;;7.88;86.69
71643;BME280;59438;45.014;39.006;2023-05-09T04:45:30;101518.34;;;7.95;86.96
71643;BME280;59438;45.014;39.006;2023-05-09T04:47:57;101525.28;;;7.96;87.12
71643;BME280;59438;45.014;39.006;2023-05-09T04:50:23;101526.13;;;8.00;87.60
71643;BME280;59438;45.014;39.006;2023-05-09T04:52:50;101523.44;;;8.03;87.35
71643;BME280;59438;45.014;39.006;2023-05-09T04:55:17;101525.19;;;8.05;87.45
71643;BME280;59438;45.014;39.006;2023-05-09T04:57:44;101533.81;;;8.11;87.70
71643;BME280;59438;45.014;39.006;2023-05-09T05:00:11;101533.72;;;8.17;87.57
71643;BME280;59438;45.014;39.006;2023-05-09T05:02:38;101529.41;;;8.14;87.61
71643;BME280;59438;45.014;39.006;2023-05-09T05:05:05;101537.16;;;8.22;87.71
71643;BME280;59438;45.014;39.006;2023-05-09T05:07:31;101538.94;;;8.20;87.19
71643;BME280;59438;45.014;39.006;2023-05-09T05:09:58;101531.09;;;8.20;87.19
71643;BME280;59438;45.014;39.006;2023-05-09T05:12:25;101537.19;;;8.20;87.41
71643;BME280;59438;45.014;39.006;2023-05-09T05:14:52;101536.31;;;8.20;87.29
71643;BME280;59438;45.014;39.006;2023-05-09T05:17:18;101544.97;;;8.23;87.49
71643;BME280;59438;45.014;39.006;2023-05-09T05:19:44;101540.63;;;8.24;87.50
71643;BME280;59438;45.014;39.006;2023-05-09T05:22:11;101544.97;;;8.25;87.40
71643;BME280;59438;45.014;39.006;2023-05-09T05:24:37;101544.19;;;8.20;87.36
71643;BME280;59438;45.014;39.006;2023-05-09T05:27:03;101551.03;;;8.27;87.65
71643;BME280;59438;45.014;39.006;2023-05-09T05:29:31;101554.56;;;8.26;86.92
71643;BME280;59438;45.014;39.006;2023-05-09T05:31:58;101540.66;;;8.22;86.90
71643;BME280;59438;45.014;39.006;2023-05-09T05:34:24;101544.13;;;8.23;86.95
71643;BME280;59438;45.014;39.006;2023-05-09T05:36:50;101540.56;;;8.27;86.58
71643;BME280;59438;45.014;39.006;2023-05-09T05:39:17;101551.94;;;8.26;87.02
71643;BME280;59438;45.014;39.006;2023-05-09T05:41:43;101547.59;;;8.23;86.72
71643;BME280;59438;45.014;39.006;2023-05-09T05:44:09;101542.34;;;8.23;86.77
71643;BME280;59438;45.014;39.006;2023-05-09T05:46:37;101545.88;;;8.22;86.99
71643;BME280;59438;45.014;39.006;2023-05-09T05:49:03;101550.19;;;8.25;86.92
71643;BME280;59438;45.014;39.006;2023-05-09T05:51:30;101542.44;;;8.19;86.91
71643;BME280;59438;45.014;39.006;2023-05-09T05:53:56;101556.34;;;8.24;87.00
71643;BME280;59438;45.014;39.006;2023-05-09T05:56:22;101541.50;;;8.24;87.08
71643;BME280;59438;45.014;39.006;2023-05-09T05:58:49;101551.13;;;8.22;86.76
71643;BME280;59438;45.014;39.006;2023-05-09T06:01:15;101543.34;;;8.16;86.87
71643;BME280;59438;45.014;39.006;2023-05-09T06:03:43;101543.34;;;8.16;86.66
71643;BME280;59438;45.014;39.006;2023-05-09T06:06:09;101521.66;;;8.06;86.86
71643;BME280;59438;45.014;39.006;2023-05-09T06:08:36;101544.13;;;8.21;86.97
71643;BME280;59438;45.014;39.006;2023-05-09T06:11:02;101539.81;;;8.20;87.21
71643;BME280;59438;45.014;39.006;2023-05-09T06:13:28;101548.50;;;8.22;86.88
71643;BME280;59438;45.014;39.006;2023-05-09T06:15:55;101525.81;;;8.23;87.36
71643;BME280;59438;45.014;39.006;2023-05-09T06:18:21;101544.88;;;8.31;87.25
71643;BME280;59438;45.014;39.006;2023-05-09T06:20:49;101540.50;;;8.33;87.44
71643;BME280;59438;45.014;39.006;2023-05-09T06:23:16;101543.94;;;8.35;87.17
71643;BME280;59438;45.014;39.006;2023-05-09T06:25:42;101538.72;;;8.34;87.12
71643;BME280;59438;45.014;39.006;2023-05-09T06:28:08;101555.22;;;8.43;87.65
71643;BME280;59438;45.014;39.006;2023-05-09T06:30:35;101559.50;;;8.47;87.87
71643;BME280;59438;45.014;39.006;2023-05-09T06:33:01;101546.41;;;8.47;88.13
71643;BME280;59438;45.014;39.006;2023-05-09T06:35:27;101544.63;;;8.51;87.77
71643;BME280;59438;45.014;39.006;2023-05-09T06:37:55;101549.78;;;8.57;87.80
71643;BME280;59438;45.014;39.006;2023-05-09T06:40:22;101529.88;;;8.45;87.65
71643;BME280;59438;45.014;39.006;2023-05-09T06:42:48;101529.75;;;8.55;86.92
71643;BME280;59438;45.014;39.006;2023-05-09T06:45:14;101534.06;;;8.57;87.07
71643;BME280;59438;45.014;39.006;2023-05-09T06:47:41;101539.22;;;8.60;87.68
71643;BME280;59438;45.014;39.006;2023-05-09T06:50:08;101557.53;;;8.65;88.05
71643;BME280;59438;45.014;39.006;2023-05-09T06:52:34;101548.75;;;8.67;87.99
71643;BME280;59438;45.014;39.006;2023-05-09T06:55:02;101547.78;;;8.73;88.07
71643;BME280;59438;45.014;39.006;2023-05-09T06:57:28;101554.75;;;8.74;87.40
71643;BME280;59438;45.014;39.006;2023-05-09T06:59:55;101522.63;;;8.63;87.43
71643;BME280;59438;45.014;39.006;2023-05-09T07:02:21;101546.97;;;8.70;87.26
71643;BME280;59438;45.014;39.006;2023-05-09T07:04:47;101539.88;;;8.75;87.03
71643;BME280;59438;45.014;39.006;2023-05-09T07:07:14;101546.88;;;8.76;87.28
71643;BME280;59438;45.014;39.006;2023-05-09T07:09:40;101531.25;;;8.70;87.03
71643;BME280;59438;45.014;39.006;2023-05-09T07:12:08;101549.41;;;8.80;87.43
71643;BME280;59438;45.014;39.006;2023-05-09T07:14:34;101538.09;;;8.78;87.43
71643;BME280;59438;45.014;39.006;2023-05-09T07:17:01;101544.88;;;8.90;88.09
71643;BME280;59438;45.014;39.006;2023-05-09T07:19:27;101538.78;;;8.90;87.33
71643;BME280;59438;45.014;39.006;2023-05-09T07:21:53;101550.97;;;8.92;87.44
71643;BME280;59438;45.014;39.006;2023-05-09T07:24:20;101548.25;;;8.97;87.84
71643;BME280;59438;45.014;39.006;2023-05-09T07:26:46;101539.47;;;8.99;88.07
71643;BME280;59438;45.014;39.006;2023-05-09T07:29:14;101547.31;;;9.01;87.44
71643;BME280;59438;45.014;39.006;2023-05-09T07:31:40;101545.53;;;9.03;87.39
71643;BME280;59438;45.014;39.006;2023-05-09T07:34:06;101549.84;;;9.05;88.05
71643;BME280;59438;45.014;39.006;2023-05-09T07:36:33;101533.34;;;9.00;87.11
71643;BME280;59438;45.014;39.006;2023-05-09T07:38:59;101545.44;;;9.07;87.64
71643;BME280;59438;45.014;39.006;2023-05-09T07:41:25;101542.81;;;9.09;87.41
71643;BME280;59438;45.014;39.006;2023-05-09T07:43:52;101549.69;;;9.16;88.13
71643;BME280;59438;45.014;39.006;2023-05-09T07:46:20;101533.03;;;9.19;87.83
71643;BME280;59438;45.014;39.006;2023-05-09T07:48:46;101545.22;;;9.20;87.58
71643;BME280;59438;45.014;39.006;2023-05-09T07:51:12;101537.38;;;9.20;87.33
71643;BME280;59438;45.014;39.006;2023-05-09T07:53:39;101530.50;;;9.14;86.74
71643;BME280;59438;45.014;39.006;2023-05-09T07:56:05;101533.03;;;9.19;87.07
71643;BME280;59438;45.014;39.006;2023-05-09T07:58:32;101536.41;;;9.24;87.79
71643;BME280;59438;45.014;39.006;2023-05-09T08:00:58;101526.13;;;9.15;86.84
71643;BME280;59438;45.014;39.006;2023-05-09T08:03:26;101546.81;;;9.28;87.54
71643;BME280;59438;45.014;39.006;2023-05-09T08:05:52;101545.03;;;9.31;87.66
71643;BME280;59438;45.014;39.006;2023-05-09T08:08:19;101546.75;;;9.33;88.26
71643;BME280;59438;45.014;39.006;2023-05-09T08:10:45;101542.28;;;9.38;87.95
71643;BME280;59438;45.014;39.006;2023-05-09T08:13:11;101547.47;;;9.41;87.36
71643;BME280;59438;45.014;39.006;2023-05-09T08:15:38;101544.88;;;9.40;87.49
71643;BME280;59438;45.014;39.006;2023-05-09T08:18:04;101542.19;;;9.43;87.40
71643;BME280;59438;45.014;39.006;2023-05-09T08:20:32;101547.38;;;9.46;87.92
71643;BME280;59438;45.014;39.006;2023-05-09T08:22:58;101543.72;;;9.55;88.30
71643;BME280;59438;45.014;39.006;2023-05-09T08:25:25;101548.88;;;9.59;88.35
71643;BME280;59438;45.014;39.006;2023-05-09T08:27:51;101549.63;;;9.66;88.27
71643;BME280;59438;45.014;39.006;2023-05-09T08:30:18;101551.31;;;9.70;87.94
71643;BME280;59438;45.014;39.006;2023-05-09T08:32:44;101553.88;;;9.72;87.27
71643;BME280;59438;45.014;39.006;2023-05-09T08:35:10;101556.50;;;9.72;87.81
71643;BME280;59438;45.014;39.006;2023-05-09T08:37:38;101542.59;;;9.68;87.59
71643;BME280;59438;45.014;39.006;2023-05-09T08:40:06;101552.19;;;9.69;87.47
71643;BME280;59438;45.014;39.006;2023-05-09T08:42:33;101555.63;;;9.71;87.81
71643;BME280;59438;45.014;39.006;2023-05-09T08:45:05;101552.97;;;9.74;88.42
71643;BME280;59438;45.014;39.006;2023-05-09T08:47:33;101556.31;;;9.82;88.91
71643;BME280;59438;45.014;39.006;2023-05-09T08:49:59;101552.72;;;9.86;88.38
71643;BME280;59438;45.014;39.006;2023-05-09T08:52:26;101558.75;;;9.90;87.58
71643;BME280;59438;45.014;39.006;2023-05-09T08:54:54;101551.66;;;9.95;88.25
71643;BME280;59438;45.014;39.006;2023-05-09T08:57:21;101550.72;;;9.98;88.18
71643;BME280;59438;45.014;39.006;2023-05-09T08:59:48;101543.69;;;10.00;87.98
71643;BME280;59438;45.014;39.006;2023-05-09T09:02:16;101541.97;;;9.99;88.23
71643;BME280;59438;45.014;39.006;2023-05-09T09:04:42;101526.28;;;9.96;87.45
71643;BME280;59438;45.014;39.006;2023-05-09T09:07:09;101540.19;;;10.01;88.30
71643;BME280;59438;45.014;39.006;2023-05-09T09:09:36;101534.88;;;10.02;88.01
71643;BME280;59438;45.014;39.006;2023-05-09T09:12:11;101533.88;;;10.08;87.94
71643;BME280;59438;45.014;39.006;2023-05-09T09:14:43;101538.16;;;10.12;87.74
71643;BME280;59438;45.014;39.006;2023-05-09T09:17:14;101532.88;;;10.15;87.75
71643;BME280;59438;45.014;39.006;2023-05-09T09:19:42;101543.28;;;10.18;87.24
71643;BME280;59438;45.014;39.006;2023-05-09T09:22:12;101548.44;;;10.23;88.33
71643;BME280;59438;45.014;39.006;2023-05-09T09:24:40;101545.66;;;10.31;88.89
71643;BME280;59438;45.014;39.006;2023-05-09T09:27:06;101539.53;;;10.32;87.42
71643;BME280;59438;45.014;39.006;2023-05-09T09:29:34;101537.75;;;10.34;88.09
71643;BME280;59438;45.014;39.006;2023-05-09T09:32:02;101544.59;;;10.39;87.57
71643;BME280;59438;45.014;39.006;2023-05-09T09:34:28;101542.78;;;10.41;87.97
71643;BME280;59438;45.014;39.006;2023-05-09T09:36:55;101538.38;;;10.43;87.28
71643;BME280;59438;45.014;39.006;2023-05-09T09:39:27;101549.69;;;10.47;88.29
71643;BME280;59438;45.014;39.006;2023-05-09T09:41:53;101550.47;;;10.51;87.27
71643;BME280;59438;45.014;39.006;2023-05-09T09:44:21;101531.41;;;10.42;87.26
71643;BME280;59438;45.014;39.006;2023-05-09T09:46:50;101554.06;;;10.46;87.22
71643;BME280;59438;45.014;39.006;2023-05-09T09:49:18;101553.25;;;10.44;87.29
71643;BME280;59438;45.014;39.006;2023-05-09T09:51:49;101548.09;;;10.40;87.57
71643;BME280;59438;45.014;39.006;2023-05-09T09:54:15;101550.75;;;10.38;86.82
71643;BME280;59438;45.014;39.006;2023-05-09T09:56:43;101540.38;;;10.32;87.04
71643;BME280;59438;45.014;39.006;2023-05-09T09:59:11;101548.97;;;10.39;87.38
71643;BME280;59438;45.014;39.006;2023-05-09T10:01:58;101547.19;;;10.41;87.69
71643;BME280;59438;45.014;39.006;2023-05-09T10:04:27;101548.03;;;10.41;86.95
71643;BME280;59438;45.014;39.006;2023-05-09T10:07:10;101535.06;;;10.35;86.87
71643;BME280;59438;45.014;39.006;2023-05-09T10:09:38;101543.72;;;10.39;86.92
71643;BME280;59438;45.014;39.006;2023-05-09T10:12:05;101535.06;;;10.35;86.76
71643;BME280;59438;45.014;39.006;2023-05-09T10:14:34;101539.41;;;10.36;87.21
71643;BME280;59438;45.014;39.006;2023-05-09T10:17:02;101554.25;;;10.39;87.33
71643;BME280;59438;45.014;39.006;2023-05-09T10:19:30;101559.47;;;10.40;87.46
71643;BME280;59438;45.014;39.006;2023-05-09T10:21:57;101530.81;;;10.30;87.07
71643;BME280;59438;45.014;39.006;2023-05-09T10:24:33;101550.66;;;10.41;86.31
71643;BME280;59438;45.014;39.006;2023-05-09T10:27:02;101548.78;;;10.48;86.84
71643;BME280;59438;45.014;39.006;2023-05-09T10:29:33;101549.63;;;10.50;86.90
71643;BME280;59438;45.014;39.006;2023-05-09T10:32:03;101562.56;;;10.58;86.40
71643;BME280;59438;45.014;39.006;2023-05-09T10:34:31;101557.13;;;10.65;87.16
71643;BME280;59438;45.014;39.006;2023-05-09T10:36:59;101551.75;;;10.70;87.51
71643;BME280;59438;45.014;39.006;2023-05-09T10:39:28;101556.88;;;10.76;87.19
71643;BME280;59438;45.014;39.006;2023-05-09T10:41:57;101553.19;;;10.83;87.23
71643;BME280;59438;45.014;39.006;2023-05-09T10:44:25;101558.34;;;10.88;86.41
71643;BME280;59438;45.014;39.006;2023-05-09T10:46:52;101552.97;;;10.93;86.60
71643;BME280;59438;45.014;39.006;2023-05-09T10:49:19;101553.63;;;11.01;86.94
71643;BME280;59438;45.014;39.006;2023-05-09T10:51:45;101549.88;;;11.09;87.07
71643;BME280;59438;45.014;39.006;2023-05-09T10:54:25;101556.75;;;11.17;86.67
71643;BME280;59438;45.014;39.006;2023-05-09T10:56:53;101559.25;;;11.21;86.30
71643;BME280;59438;45.014;39.006;2023-05-09T10:59:33;101555.66;;;11.24;85.72
71643;BME280;59438;45.014;39.006;2023-05-09T11:02:00;101566.28;;;11.21;86.27
71643;BME280;59438;45.014;39.006;2023-05-09T11:04:26;101568.91;;;11.21;85.15
71643;BME280;59438;45.014;39.006;2023-05-09T11:06:53;101561.91;;;11.20;85.06
71643;BME280;59438;45.014;39.006;2023-05-09T11:09:24;101554.81;;;11.23;85.19
71643;BME280;59438;45.014;39.006;2023-05-09T11:11:53;101565.25;;;11.26;85.99
71643;BME280;59438;45.014;39.006;2023-05-09T11:14:31;101559.88;;;11.31;85.82
71643;BME280;59438;45.014;39.006;2023-05-09T11:16:58;101567.59;;;11.37;85.83
71643;BME280;59438;45.014;39.006;2023-05-09T11:19:56;101570.91;;;11.44;86.11
71643;BME280;59438;45.014;39.006;2023-05-09T11:22:23;101566.56;;;11.43;85.42
71643;BME280;59438;45.014;39.006;2023-05-09T11:24:53;101554.28;;;11.43;84.93
71643;BME280;59438;45.014;39.006;2023-05-09T11:27:26;101556.09;;;11.41;84.76
71643;BME280;59438;45.014;39.006;2023-05-09T11:29:55;101558.72;;;11.41;84.94
71643;BME280;59438;45.014;39.006;2023-05-09T11:32:28;101547.34;;;11.41;84.69
71643;BME280;59438;45.014;39.006;2023-05-09T11:35:05;101547.22;;;11.45;84.92
71643;BME280;59438;45.014;39.006;2023-05-09T11:37:31;101540.28;;;11.43;84.35
71643;BME280;59438;45.014;39.006;2023-05-09T11:40:00;101545.47;;;11.44;84.64
71643;BME280;59438;45.014;39.006;2023-05-09T11:42:28;101543.66;;;11.46;85.17
71643;BME280;59438;45.014;39.006;2023-05-09T11:44:55;101535.84;;;11.45;85.25
71643;BME280;59438;45.014;39.006;2023-05-09T11:47:22;101543.75;;;11.43;85.10
71643;BME280;59438;45.014;39.006;2023-05-09T11:49:48;101528.97;;;11.39;84.99
71643;BME280;59438;45.014;39.006;2023-05-09T11:52:15;101518.59;;;11.33;84.81
71643;BME280;59438;45.014;39.006;2023-05-09T11:54:41;101536.72;;;11.44;84.59
71643;BME280;59438;45.014;39.006;2023-05-09T11:57:08;101529.69;;;11.44;84.61
71643;BME280;59438;45.014;39.006;2023-05-09T11:59:37;101528.88;;;11.42;84.74
71643;BME280;59438;45.014;39.006;2023-05-09T12:02:04;101537.56;;;11.44;84.85
71643;BME280;59438;45.014;39.006;2023-05-09T12:04:31;101543.75;;;11.43;84.47
71643;BME280;59438;45.014;39.006;2023-05-09T12:06:58;101536.72;;;11.44;84.66
71643;BME280;59438;45.014;39.006;2023-05-09T12:09:25;101529.75;;;11.43;84.31
71643;BME280;59438;45.014;39.006;2023-05-09T12:11:54;101524.53;;;11.41;84.75
71643;BME280;59438;45.014;39.006;2023-05-09T12:14:27;101526.22;;;11.42;84.30
71643;BME280;59438;45.014;39.006;2023-05-09T12:16:56;101528.88;;;11.42;84.56
71643;BME280;59438;45.014;39.006;2023-05-09T12:19:24;101505.50;;;11.32;84.45
71643;BME280;59438;45.014;39.006;2023-05-09T12:21:54;101518.25;;;11.47;84.78
71643;BME280;59438;45.014;39.006;2023-05-09T12:24:20;101521.72;;;11.47;84.26
71643;BME280;59438;45.014;39.006;2023-05-09T12:26:47;101523.50;;;11.47;84.49
71643;BME280;59438;45.014;39.006;2023-05-09T12:29:13;101525.19;;;11.49;84.47
71643;BME280;59438;45.014;39.006;2023-05-09T12:31:40;101522.50;;;11.51;84.84
71643;BME280;59438;45.014;39.006;2023-05-09T12:34:08;101523.31;;;11.53;84.66
71643;BME280;59438;45.014;39.006;2023-05-09T12:36:35;101523.25;;;11.55;84.87
71643;BME280;59438;45.014;39.006;2023-05-09T12:39:02;101527.63;;;11.56;84.35
71643;BME280;59438;45.014;39.006;2023-05-09T12:41:32;101524.19;;;11.54;84.32
71643;BME280;59438;45.014;39.006;2023-05-09T12:44:00;101519.88;;;11.51;84.24
71643;BME280;59438;45.014;39.006;2023-05-09T12:46:26;101523.41;;;11.50;84.08
71643;BME280;59438;45.014;39.006;2023-05-09T12:48:53;101526.97;;;11.47;84.31
71643;BME280;59438;45.014;39.006;2023-05-09T12:51:21;101534.88;;;11.47;84.52